Terminal Aerodrome Forecast
Issued by NWS

Home | Current Version | Previous Version | Text Only | Print | Product List | Glossary On
Versions: 1 2 3 4 5 6 7 8 9 10 11 12
561
FTUS46 KLOX 271132
TAFWJF
TAF
KWJF 271132Z 2712/2812 22008KT P6SM SKC
     FM271500 VRB03KT P6SM SKC
     FM271900 25010KT P6SM SKC
     FM272100 24015G25KT P6SM SKC
     FM280300 26012KT P6SM SKC
     FM280900 VRB05KT P6SM SKC=

USA.gov is the U.S. government's official web portal to all federal, state and local government web resources and services.